Skip Navigation LinksHome page > Tools > METAR decoder Skip Navigation Links

METAR decoder

Settings

METAR

Chicago O'Hare Intl, Chicago

For information only: do not use for flight planning or navigation.
Latest weather
Observation time Monday, January 26, 2015 1:51 AM CST
Local time Monday, January 26, 2015 2:21 AM CST
Flight conditions Marginal Visual Meteorological Conditions
Winds
Wind direction East-Northeast (60°)
Wind speed 12 mph
Visibility 10 mi.
Sky condition
Ceiling 2,300 ft. broken clouds
Cloud layer broken clouds 2,300 ft.
Temperature 24°F
Dewpoint 15°F
Altimeter 29.98 in.Hg
Derived measurements
Relative humidity 68%
Wind chill 13°F
Density altitude -1744 ft.
Sea-level pressure 30.01 in.Hg
Remarks
Automated weather observing station with precipitation discriminator.
METAR KORD 260751Z 06010KT 10SM BKN023 M04/M09 A2998 RMK AO2 SLP161 T10441094

InnerDrive.Weather 4.0.5503.0 Release CLR 4.0.30319.34014
Copyright ©2015 Inner Drive Technology. All rights reserved. Portions Copyright ©1986-2015 David Braverman.

Find weather

Site navigation


Skip Navigation Links

Place info

Page info

PayPal - The safer, easier way to pay online!

Return home.

Copyright ©2015 Inner Drive Technology. Purveyors of fine, hand-crafted computer software. Page printed 2015-01-26T08:22:00 UTC.